createdAt,value
2022-11-01T00:02:18.548Z,100.00
2022-11-01T00:04:47.004Z,100.00
2022-11-01T00:07:15.680Z,100.00
2022-11-01T00:09:45.718Z,100.00
2022-11-01T00:12:14.004Z,100.00
2022-11-01T00:14:42.601Z,100.00
2022-11-01T00:17:11.907Z,100.00
2022-11-01T00:19:40.687Z,100.00
2022-11-01T00:22:09.728Z,100.00
2022-11-01T00:24:38.440Z,100.00
2022-11-01T00:27:09.510Z,100.00
2022-11-01T00:29:38.614Z,100.00
2022-11-01T00:32:07.236Z,100.00
2022-11-01T00:34:37.077Z,100.00
2022-11-01T00:37:05.660Z,100.00
2022-11-01T00:39:34.557Z,100.00
2022-11-01T00:42:03.298Z,100.00
2022-11-01T00:44:34.657Z,100.00
2022-11-01T00:47:03.489Z,100.00
2022-11-01T00:49:33.007Z,100.00
2022-11-01T00:52:01.547Z,100.00
2022-11-01T00:54:30.591Z,100.00
2022-11-01T00:57:00.910Z,100.00
2022-11-01T00:59:29.799Z,100.00
2022-11-01T01:02:01.719Z,100.00
2022-11-01T01:04:30.923Z,100.00
2022-11-01T01:06:59.764Z,100.00
2022-11-01T01:09:28.563Z,100.00
2022-11-01T01:12:00.792Z,100.00
2022-11-01T01:14:32.437Z,100.00
2022-11-01T01:17:03.180Z,100.00
2022-11-01T01:19:31.924Z,100.00
2022-11-01T01:22:01.238Z,100.00
2022-11-01T01:24:29.851Z,100.00
2022-11-01T01:26:58.412Z,100.00
2022-11-01T01:29:26.924Z,100.00
2022-11-01T01:31:55.682Z,100.00
2022-11-01T01:34:25.901Z,100.00
2022-11-01T01:36:54.396Z,100.00
2022-11-01T01:39:22.926Z,100.00
2022-11-01T01:42:00.365Z,100.00
2022-11-01T01:45:16.639Z,100.00
2022-11-01T01:47:48.849Z,100.00
2022-11-01T01:50:23.896Z,100.00
2022-11-01T01:52:56.670Z,100.00
2022-11-01T01:55:30.490Z,100.00
2022-11-01T01:57:59.702Z,100.00
2022-11-01T02:00:28.750Z,100.00
2022-11-01T02:02:58.311Z,100.00
2022-11-01T02:05:35.738Z,100.00
2022-11-01T02:08:06.419Z,100.00
2022-11-01T02:10:36.072Z,100.00
2022-11-01T02:13:04.880Z,100.00
2022-11-01T02:15:42.589Z,100.00
2022-11-01T02:18:22.339Z,100.00
2022-11-01T02:21:35.441Z,100.00
2022-11-01T02:24:24.886Z,100.00
2022-11-01T02:27:12.139Z,100.00
2022-11-01T02:30:08.375Z,100.00
2022-11-01T02:32:49.393Z,100.00
2022-11-01T02:35:24.985Z,100.00
2022-11-01T02:37:57.500Z,100.00
2022-11-01T02:40:32.712Z,100.00
2022-11-01T02:43:06.919Z,100.00
2022-11-01T02:45:40.932Z,100.00
2022-11-01T02:48:10.480Z,100.00
2022-11-01T02:50:43.791Z,100.00
2022-11-01T02:53:13.199Z,100.00
2022-11-01T02:55:41.817Z,100.00
2022-11-01T02:58:17.941Z,100.00
2022-11-01T03:00:46.654Z,100.00
2022-11-01T03:03:21.874Z,100.00
2022-11-01T03:06:00.216Z,100.00
2022-11-01T03:08:33.579Z,100.00
2022-11-01T03:11:08.318Z,100.00
2022-11-01T03:13:57.881Z,100.00
2022-11-01T03:16:32.504Z,100.00
2022-11-01T03:19:19.149Z,100.00
2022-11-01T03:21:54.288Z,100.00
2022-11-01T03:24:28.088Z,100.00
2022-11-01T03:27:05.799Z,100.00
2022-11-01T03:29:38.776Z,100.00
2022-11-01T03:32:09.482Z,100.00
2022-11-01T03:34:40.531Z,100.00
2022-11-01T03:37:12.695Z,100.00
2022-11-01T03:39:44.590Z,100.00
2022-11-01T03:42:17.335Z,100.00
2022-11-01T03:44:48.945Z,100.00
2022-11-01T03:47:18.525Z,100.00
2022-11-01T03:49:48.428Z,100.00
2022-11-01T03:52:17.310Z,100.00
2022-11-01T03:54:46.000Z,100.00
2022-11-01T03:57:14.586Z,100.00
2022-11-01T03:59:43.006Z,100.00
2022-11-01T04:02:11.895Z,100.00
2022-11-01T04:04:40.428Z,100.00
2022-11-01T04:07:10.370Z,100.00
2022-11-01T04:09:39.006Z,100.00
2022-11-01T04:12:07.976Z,100.00
2022-11-01T04:14:54.257Z,100.00
2022-11-01T04:17:39.924Z,100.00
2022-11-01T04:20:27.108Z,100.00
2022-11-01T04:22:57.598Z,100.00
2022-11-01T04:25:26.261Z,100.00
2022-11-01T04:27:56.674Z,100.00
2022-11-01T04:30:25.246Z,100.00
2022-11-01T04:32:53.658Z,100.00
2022-11-01T04:35:22.460Z,100.00
2022-11-01T04:38:00.506Z,100.00
2022-11-01T04:40:29.270Z,100.00
2022-11-01T04:42:57.752Z,100.00
2022-11-01T04:45:26.351Z,100.00
2022-11-01T04:48:03.414Z,100.00
2022-11-01T04:50:32.682Z,100.00
2022-11-01T04:53:03.908Z,100.00
2022-11-01T04:55:32.518Z,100.00
2022-11-01T04:58:01.241Z,100.00
2022-11-01T05:00:31.896Z,100.00
2022-11-01T05:03:04.958Z,100.00
2022-11-01T05:05:33.824Z,100.00
2022-11-01T05:08:05.284Z,100.00
2022-11-01T05:10:34.106Z,100.00
2022-11-01T05:13:03.350Z,100.00
2022-11-01T05:15:32.179Z,100.00
2022-11-01T05:18:02.820Z,100.00
2022-11-01T05:20:32.120Z,100.00
2022-11-01T05:23:01.201Z,100.00
2022-11-01T05:25:34.021Z,100.00
2022-11-01T05:28:08.094Z,100.00
2022-11-01T05:30:37.359Z,100.00
2022-11-01T05:33:07.999Z,100.00
2022-11-01T05:35:37.963Z,100.00
2022-11-01T05:38:08.341Z,100.00
2022-11-01T05:40:38.258Z,100.00
2022-11-01T05:43:07.359Z,100.00
2022-11-01T05:45:35.782Z,100.00
2022-11-01T05:48:05.101Z,100.00
2022-11-01T05:50:33.652Z,100.00
2022-11-01T05:53:08.951Z,100.00
2022-11-01T05:55:39.217Z,100.00
2022-11-01T05:58:07.687Z,100.00
2022-11-01T06:00:36.996Z,100.00
2022-11-01T06:03:06.461Z,100.00
2022-11-01T06:05:35.814Z,100.00
2022-11-01T06:08:04.593Z,100.00
2022-11-01T06:10:33.299Z,100.00
2022-11-01T06:13:04.472Z,100.00
2022-11-01T06:15:35.767Z,100.00
2022-11-01T06:18:07.775Z,100.00
2022-11-01T06:20:37.478Z,100.00
2022-11-01T06:23:11.479Z,100.00
2022-11-01T06:25:41.515Z,100.00
2022-11-01T06:28:11.693Z,100.00
2022-11-01T06:30:40.383Z,100.00
2022-11-01T06:33:09.735Z,100.00
2022-11-01T06:35:39.295Z,100.00
2022-11-01T06:38:09.518Z,100.00
2022-11-01T06:40:38.656Z,100.00
2022-11-01T06:43:07.605Z,100.00
2022-11-01T06:45:38.040Z,100.00
2022-11-01T06:48:07.117Z,100.00
2022-11-01T06:50:35.382Z,100.00
2022-11-01T06:53:05.342Z,100.00
2022-11-01T06:55:33.780Z,100.00
2022-11-01T06:58:03.999Z,100.00
2022-11-01T07:00:33.309Z,100.00
2022-11-01T07:03:05.499Z,100.00
2022-11-01T07:05:37.280Z,100.00
2022-11-01T07:08:08.229Z,100.00
2022-11-01T07:10:38.612Z,100.00
2022-11-01T07:13:09.046Z,100.00
2022-11-01T07:15:37.524Z,100.00
2022-11-01T07:18:09.036Z,100.00
2022-11-01T07:20:42.853Z,100.00
2022-11-01T07:23:14.849Z,100.00
2022-11-01T07:25:44.926Z,100.00
2022-11-01T07:28:13.352Z,100.00
2022-11-01T07:30:42.825Z,100.00
2022-11-01T07:33:12.686Z,100.00
2022-11-01T07:35:41.005Z,100.00
2022-11-01T07:38:13.126Z,100.00
2022-11-01T07:40:41.870Z,100.00
2022-11-01T07:43:10.677Z,100.00
2022-11-01T07:45:38.982Z,100.00
2022-11-01T07:48:10.613Z,100.00
2022-11-01T07:50:43.099Z,100.00
2022-11-01T07:53:13.780Z,100.00
2022-11-01T07:55:44.244Z,100.00
2022-11-01T07:58:14.140Z,100.00
2022-11-01T08:00:44.260Z,100.00
2022-11-01T08:03:15.699Z,100.00
2022-11-01T08:05:46.452Z,100.00
2022-11-01T08:08:15.991Z,100.00
2022-11-01T08:10:44.883Z,100.00
2022-11-01T08:13:18.425Z,100.00
2022-11-01T08:15:47.392Z,100.00
2022-11-01T08:18:16.066Z,100.00
2022-11-01T08:20:46.909Z,100.00
2022-11-01T08:23:16.297Z,100.00
2022-11-01T08:25:45.269Z,100.00
2022-11-01T08:28:15.634Z,100.00
2022-11-01T08:30:46.052Z,100.00
2022-11-01T08:33:14.437Z,100.00
2022-11-01T08:35:48.849Z,100.00
2022-11-01T08:38:22.205Z,100.00
2022-11-01T08:40:50.860Z,100.00
2022-11-01T08:43:19.341Z,100.00
2022-11-01T08:45:48.275Z,100.00
2022-11-01T08:48:16.739Z,100.00
2022-11-01T08:50:45.116Z,100.00
2022-11-01T08:53:16.055Z,100.00
2022-11-01T08:55:46.073Z,100.00
2022-11-01T08:58:14.661Z,100.00
2022-11-01T09:00:43.160Z,100.00
2022-11-01T09:03:12.734Z,100.00
2022-11-01T09:05:41.243Z,100.00
2022-11-01T09:08:10.755Z,100.00
2022-11-01T09:10:39.151Z,100.00
2022-11-01T09:13:08.963Z,100.00
2022-11-01T09:15:37.724Z,100.00
2022-11-01T09:18:07.745Z,100.00
2022-11-01T09:20:36.234Z,100.00
2022-11-01T09:23:05.450Z,100.00
2022-11-01T09:25:34.086Z,100.00
2022-11-01T09:28:02.412Z,100.00
2022-11-01T09:30:32.412Z,100.00
2022-11-01T09:33:01.230Z,100.00
2022-11-01T09:35:30.283Z,100.00
2022-11-01T09:38:02.538Z,100.00
2022-11-01T09:40:36.098Z,100.00
2022-11-01T09:43:05.588Z,100.00
2022-11-01T09:45:36.243Z,100.00
2022-11-01T09:48:07.991Z,100.00
2022-11-01T09:50:39.981Z,100.00
2022-11-01T09:53:16.478Z,100.00
2022-11-01T09:55:49.785Z,100.00
2022-11-01T09:58:30.406Z,100.00
2022-11-01T10:01:12.409Z,100.00
2022-11-01T10:03:53.871Z,100.00
2022-11-01T10:06:26.167Z,100.00
2022-11-01T10:09:04.312Z,100.00
2022-11-01T10:11:46.593Z,100.00
2022-11-01T10:14:29.461Z,100.00
2022-11-01T10:17:10.187Z,100.00
2022-11-01T10:19:40.346Z,100.00
2022-11-01T10:22:17.584Z,100.00
2022-11-01T10:24:51.746Z,100.00
2022-11-01T10:27:28.532Z,100.00
2022-11-01T10:30:04.270Z,100.00
2022-11-01T10:32:40.573Z,100.00
2022-11-01T10:35:18.088Z,100.00
2022-11-01T10:38:11.127Z,100.00
2022-11-01T10:40:49.230Z,100.00
2022-11-01T10:43:22.954Z,100.00
2022-11-01T10:45:55.626Z,100.00
2022-11-01T10:48:32.505Z,100.00
2022-11-01T10:51:05.297Z,100.00
2022-11-01T10:53:37.447Z,100.00
2022-11-01T10:56:10.446Z,100.00
2022-11-01T10:58:46.914Z,100.00
2022-11-01T11:01:20.512Z,100.00
2022-11-01T11:03:52.492Z,100.00
2022-11-01T11:06:21.057Z,100.00
2022-11-01T11:08:52.872Z,100.00
2022-11-01T11:11:35.606Z,100.00
2022-11-01T11:14:09.825Z,100.00
2022-11-01T11:16:44.904Z,100.00
2022-11-01T11:19:24.195Z,100.00
2022-11-01T11:21:55.678Z,100.00
2022-11-01T11:24:28.570Z,100.00
2022-11-01T11:26:59.099Z,100.00
2022-11-01T11:29:41.091Z,100.00
2022-11-01T11:32:18.474Z,100.00
2022-11-01T11:34:55.781Z,100.00
2022-11-01T11:37:28.010Z,99.89
2022-11-01T11:40:20.255Z,100.00
2022-11-01T11:42:51.860Z,100.00
2022-11-01T11:45:27.566Z,98.59
2022-11-01T11:47:56.579Z,99.99
2022-11-01T11:50:36.385Z,99.47
2022-11-01T11:53:08.766Z,98.08
2022-11-01T11:55:44.584Z,96.20
2022-11-01T11:58:25.247Z,100.00
2022-11-01T12:00:59.782Z,100.00
2022-11-01T12:03:29.137Z,99.60
2022-11-01T12:06:08.918Z,97.66
2022-11-01T12:08:46.890Z,97.44
2022-11-01T12:11:16.413Z,97.28
2022-11-01T12:13:47.106Z,96.36
2022-11-01T12:16:22.561Z,96.78
2022-11-01T12:18:56.183Z,93.04
2022-11-01T12:21:31.764Z,94.48
2022-11-01T12:24:05.626Z,100.00
2022-11-01T12:26:38.389Z,100.00
2022-11-01T12:29:21.919Z,99.91
2022-11-01T12:31:53.426Z,100.00
2022-11-01T12:34:27.235Z,100.00
2022-11-01T12:37:00.902Z,100.00
2022-11-01T12:39:44.254Z,99.28
2022-11-01T12:42:26.315Z,100.00
2022-11-01T12:45:00.110Z,98.51
2022-11-01T12:47:36.798Z,100.00
2022-11-01T12:50:11.545Z,96.44
2022-11-01T12:52:46.285Z,95.65
2022-11-01T12:55:23.953Z,97.60
2022-11-01T12:57:52.492Z,99.48
2022-11-01T13:00:22.080Z,100.00
2022-11-01T13:03:05.347Z,100.00
2022-11-01T13:05:44.923Z,99.84
2022-11-01T13:08:25.499Z,98.59
2022-11-01T13:10:57.035Z,97.81
2022-11-01T13:13:31.870Z,100.00
2022-11-01T13:16:11.627Z,96.96
2022-11-01T13:18:48.585Z,97.38
2022-11-01T13:21:30.398Z,95.23
2022-11-01T13:24:08.996Z,92.86
2022-11-01T13:26:45.261Z,97.19
2022-11-01T13:29:19.165Z,98.76
2022-11-01T13:32:01.091Z,92.51
2022-11-01T13:34:46.973Z,95.11
2022-11-01T13:37:27.521Z,96.82
2022-11-01T13:40:20.141Z,97.69
2022-11-01T13:42:56.475Z,96.77
2022-11-01T13:45:59.222Z,100.00
2022-11-01T13:48:39.318Z,90.89
2022-11-01T13:51:24.994Z,95.22
2022-11-01T13:54:01.364Z,92.90
2022-11-01T13:56:36.831Z,95.53
2022-11-01T13:59:15.506Z,95.14
2022-11-01T14:01:45.212Z,87.17
2022-11-01T14:04:49.906Z,88.95
2022-11-01T14:07:19.295Z,91.26
2022-11-01T14:09:49.706Z,95.75
2022-11-01T14:12:43.388Z,94.84
2022-11-01T14:15:24.706Z,94.66
2022-11-01T14:18:05.364Z,98.77
2022-11-01T14:20:52.749Z,96.86
2022-11-01T14:24:02.308Z,97.29
2022-11-01T14:26:49.062Z,99.23
2022-11-01T14:29:19.369Z,94.23
2022-11-01T14:31:52.831Z,95.44
2022-11-01T14:34:33.343Z,94.87
2022-11-01T14:37:14.298Z,99.79
2022-11-01T14:39:50.101Z,97.23
2022-11-01T14:42:26.743Z,95.60
2022-11-01T14:45:00.695Z,95.30
2022-11-01T14:47:37.503Z,97.23
2022-11-01T14:50:26.161Z,99.25
2022-11-01T14:53:02.125Z,98.60
2022-11-01T14:55:36.563Z,99.26
2022-11-01T14:58:20.574Z,97.58
2022-11-01T15:00:55.189Z,100.00
2022-11-01T15:03:25.029Z,100.00
2022-11-01T15:05:55.147Z,100.00
2022-11-01T15:08:27.927Z,100.00
2022-11-01T15:10:59.167Z,99.05
2022-11-01T15:13:29.396Z,100.00
2022-11-01T15:16:09.357Z,100.00
2022-11-01T15:18:42.761Z,100.00
2022-11-01T15:23:55.591Z,100.00
2022-11-01T15:26:28.974Z,100.00
2022-11-01T15:29:00.424Z,100.00
2022-11-01T15:31:31.376Z,100.00
2022-11-01T15:34:01.800Z,100.00
2022-11-01T15:36:34.155Z,100.00
2022-11-01T15:39:06.345Z,100.00
2022-11-01T15:41:37.078Z,100.00
2022-11-01T15:44:07.835Z,100.00
2022-11-01T15:46:42.159Z,100.00
2022-11-01T15:49:16.504Z,100.00
2022-11-01T15:51:52.009Z,100.00
2022-11-01T15:54:34.764Z,100.00
2022-11-01T15:57:12.526Z,100.00
2022-11-01T15:59:49.730Z,100.00
2022-11-01T16:02:28.716Z,100.00
2022-11-01T16:04:59.385Z,100.00
2022-11-01T16:07:32.067Z,100.00
2022-11-01T16:10:04.745Z,100.00
2022-11-01T16:12:38.987Z,100.00
2022-11-01T16:15:20.518Z,100.00
2022-11-01T16:17:55.749Z,100.00
2022-11-01T16:20:31.577Z,100.00
2022-11-01T16:23:02.950Z,100.00
2022-11-01T16:25:33.561Z,100.00
2022-11-01T16:28:08.586Z,100.00
2022-11-01T16:30:45.620Z,100.00
2022-11-01T16:33:24.295Z,100.00
2022-11-01T16:35:56.570Z,100.00
2022-11-01T16:38:30.851Z,100.00
2022-11-01T16:41:01.961Z,100.00
2022-11-01T16:43:33.642Z,100.00
2022-11-01T16:46:03.740Z,100.00
2022-11-01T16:48:36.518Z,100.00
2022-11-01T16:51:06.667Z,100.00
2022-11-01T16:53:35.362Z,100.00
2022-11-01T16:56:34.944Z,100.00
2022-11-01T16:59:00.063Z,100.00
2022-11-01T17:01:35.374Z,100.00
2022-11-01T17:04:06.641Z,100.00
2022-11-01T17:06:38.956Z,100.00
2022-11-01T17:09:13.559Z,100.00
2022-11-01T17:11:46.399Z,100.00
2022-11-01T17:14:19.758Z,100.00
2022-11-01T17:16:50.240Z,100.00
2022-11-01T17:19:26.248Z,100.00
2022-11-01T17:21:55.734Z,100.00
2022-11-01T17:24:27.477Z,100.00
2022-11-01T17:27:00.965Z,100.00
2022-11-01T17:29:30.604Z,100.00
2022-11-01T17:31:59.496Z,100.00
2022-11-01T17:34:31.295Z,100.00
2022-11-01T17:37:02.919Z,100.00
2022-11-01T17:39:32.248Z,100.00
2022-11-01T17:42:02.728Z,100.00
2022-11-01T17:44:32.170Z,100.00
2022-11-01T17:47:01.464Z,100.00
2022-11-01T17:49:31.588Z,100.00
2022-11-01T17:52:01.184Z,100.00
2022-11-01T17:54:29.672Z,100.00
2022-11-01T17:56:58.079Z,100.00
2022-11-01T17:59:26.777Z,100.00
2022-11-01T18:01:55.964Z,100.00
2022-11-01T18:04:24.759Z,100.00
2022-11-01T18:06:54.847Z,100.00
2022-11-01T18:09:25.439Z,100.00
2022-11-01T18:12:01.002Z,100.00
2022-11-01T18:14:48.918Z,100.00
2022-11-01T18:17:41.441Z,100.00
2022-11-01T18:20:22.776Z,100.00
2022-11-01T18:22:58.561Z,100.00
2022-11-01T18:25:33.640Z,100.00
2022-11-01T18:28:08.174Z,100.00
2022-11-01T18:30:38.156Z,100.00
2022-11-01T18:33:11.862Z,100.00
2022-11-01T18:35:46.241Z,100.00
2022-11-01T18:38:26.389Z,100.00
2022-11-01T18:41:00.567Z,100.00
2022-11-01T18:43:32.081Z,100.00
2022-11-01T18:48:51.077Z,100.00
2022-11-01T18:51:26.584Z,100.00
2022-11-01T18:54:00.390Z,100.00
2022-11-01T18:56:29.689Z,100.00
2022-11-01T18:58:59.030Z,100.00
2022-11-01T19:01:32.432Z,100.00
2022-11-01T19:04:04.084Z,100.00
2022-11-01T19:06:34.178Z,100.00
2022-11-01T19:09:24.321Z,100.00
2022-11-01T19:11:59.227Z,100.00
2022-11-01T19:14:29.332Z,100.00
2022-11-01T19:17:00.092Z,100.00
2022-11-01T19:19:29.002Z,100.00
2022-11-01T19:22:01.634Z,100.00
2022-11-01T19:24:39.228Z,100.00
2022-11-01T19:27:16.954Z,100.00
2022-11-01T19:29:45.759Z,100.00
2022-11-01T19:32:17.261Z,100.00
2022-11-01T19:34:46.590Z,100.00
2022-11-01T19:37:23.420Z,100.00
2022-11-01T19:39:55.307Z,100.00
2022-11-01T19:42:29.619Z,100.00
2022-11-01T19:45:00.462Z,100.00
2022-11-01T19:47:39.478Z,100.00
2022-11-01T19:50:22.247Z,100.00
2022-11-01T19:52:52.741Z,100.00
2022-11-01T19:55:40.644Z,100.00
2022-11-01T19:58:26.445Z,100.00
2022-11-01T20:01:23.472Z,100.00
2022-11-01T20:03:57.588Z,100.00
2022-11-01T20:06:30.281Z,100.00
2022-11-01T20:09:03.302Z,100.00
2022-11-01T20:11:34.626Z,100.00
2022-11-01T20:14:03.388Z,100.00
2022-11-01T20:16:31.978Z,100.00
2022-11-01T20:19:00.596Z,100.00
2022-11-01T20:21:29.618Z,100.00
2022-11-01T20:23:58.882Z,100.00
2022-11-01T20:26:27.670Z,100.00
2022-11-01T20:28:57.722Z,100.00
2022-11-01T20:31:27.223Z,100.00
2022-11-01T20:33:55.965Z,100.00
2022-11-01T20:36:24.289Z,100.00
2022-11-01T20:38:53.068Z,100.00
2022-11-01T20:41:22.430Z,100.00
2022-11-01T20:43:51.114Z,100.00
2022-11-01T20:46:21.661Z,100.00
2022-11-01T20:48:53.068Z,100.00
2022-11-01T20:51:22.749Z,100.00
2022-11-01T20:53:51.093Z,100.00
2022-11-01T20:56:19.842Z,100.00
2022-11-01T20:58:48.905Z,100.00
2022-11-01T21:01:19.300Z,100.00
2022-11-01T21:03:49.625Z,100.00
2022-11-01T21:06:19.857Z,100.00
2022-11-01T21:08:49.359Z,100.00
2022-11-01T21:11:24.173Z,100.00
2022-11-01T21:13:53.081Z,100.00
2022-11-01T21:16:28.208Z,100.00
2022-11-01T21:19:02.312Z,100.00
2022-11-01T21:21:35.229Z,100.00
2022-11-01T21:24:31.269Z,100.00
2022-11-01T21:27:14.439Z,100.00
2022-11-01T21:29:45.467Z,100.00
2022-11-01T21:32:30.904Z,100.00
2022-11-01T21:35:00.625Z,100.00
2022-11-01T21:37:31.591Z,100.00
2022-11-01T21:40:06.741Z,100.00
2022-11-01T21:42:39.648Z,100.00
2022-11-01T21:45:31.564Z,100.00
2022-11-01T21:48:03.086Z,100.00
2022-11-01T21:50:33.748Z,100.00
2022-11-01T21:53:04.331Z,100.00
2022-11-01T21:55:32.846Z,100.00
2022-11-01T21:58:01.611Z,100.00
2022-11-01T22:00:31.532Z,100.00
2022-11-01T22:03:00.748Z,100.00
2022-11-01T22:05:29.591Z,100.00
2022-11-01T22:07:59.270Z,100.00
2022-11-01T22:10:27.713Z,100.00
2022-11-01T22:12:56.264Z,100.00
2022-11-01T22:15:24.676Z,100.00
2022-11-01T22:17:53.184Z,100.00
2022-11-01T22:20:21.461Z,100.00
2022-11-01T22:22:49.916Z,100.00
2022-11-01T22:25:19.959Z,100.00
2022-11-01T22:27:48.646Z,100.00
2022-11-01T22:30:17.708Z,100.00
2022-11-01T22:32:46.308Z,100.00
2022-11-01T22:35:14.773Z,100.00
2022-11-01T22:37:43.460Z,100.00
2022-11-01T22:40:14.056Z,100.00
2022-11-01T22:42:44.026Z,100.00
2022-11-01T22:45:18.218Z,100.00
2022-11-01T22:47:47.520Z,100.00
2022-11-01T22:50:27.511Z,100.00
2022-11-01T22:52:55.859Z,100.00
2022-11-01T22:55:28.021Z,100.00
2022-11-01T22:58:02.610Z,100.00
2022-11-01T23:00:33.790Z,100.00
2022-11-01T23:03:12.172Z,100.00
2022-11-01T23:05:40.444Z,100.00
2022-11-01T23:08:18.242Z,100.00
2022-11-01T23:10:49.696Z,100.00
2022-11-01T23:13:43.549Z,100.00
2022-11-01T23:16:22.244Z,100.00
2022-11-01T23:18:51.650Z,100.00
2022-11-01T23:21:22.613Z,100.00
2022-11-01T23:23:52.217Z,100.00
2022-11-01T23:26:21.486Z,100.00
2022-11-01T23:28:53.664Z,100.00
2022-11-01T23:31:24.097Z,100.00
2022-11-01T23:33:53.200Z,100.00
2022-11-01T23:36:27.111Z,100.00
2022-11-01T23:41:32.221Z,100.00
2022-11-01T23:44:07.664Z,100.00
2022-11-01T23:46:36.291Z,100.00
2022-11-01T23:49:15.168Z,100.00
2022-11-01T23:51:44.753Z,100.00
2022-11-01T23:54:18.700Z,100.00
2022-11-01T23:56:47.249Z,100.00
2022-11-01T23:59:17.703Z,100.00
